Time;durP1;ratioP1;P1;durP2;ratioP2;P2;SDS_P1;SDS_P2;PMS_P1;PMS_P2;Temp;Humidity;BMP_temperature;BMP_pressure;BME280_temperature;BME280_humidity;BME280_pressure;Samples;Min_cycle;Max_cycle;Signal;HPM_P1;HPM_P2
2022/03/10 00:00:27;;;;;;;13.17;6.63;;;4.70;99.90;;;;;;5000149;28;20232;-45
2022/03/10 00:02:53;;;;;;;13.37;7.90;;;4.60;99.90;;;;;;4977647;28;20459;-49
2022/03/10 00:05:20;;;;;;;10.27;6.87;;;4.60;99.90;;;;;;5011223;28;20384;-44
2022/03/10 00:07:47;;;;;;;10.50;7.27;;;4.60;99.90;;;;;;4989219;28;20217;-45
2022/03/10 00:10:16;;;;;;;8.73;6.80;;;4.60;99.90;;;;;;4991325;28;21404;-45
2022/03/10 00:12:50;;;;;;;11.73;7.47;;;4.50;99.90;;;;;;5015017;28;20240;-45
2022/03/10 00:15:19;;;;;;;9.60;6.77;;;4.50;99.90;;;;;;4989879;28;20637;-48
2022/03/10 00:17:46;;;;;;;9.40;7.23;;;4.50;99.90;;;;;;5004301;28;20281;-45
2022/03/10 00:20:13;;;;;;;11.30;7.67;;;4.50;99.90;;;;;;4974480;28;20551;-45
2022/03/10 00:22:47;;;;;;;10.37;7.50;;;4.50;99.90;;;;;;5010920;28;20233;-49
2022/03/10 00:25:14;;;;;;;11.17;6.70;;;4.50;99.90;;;;;;4997995;28;20306;-44
2022/03/10 00:27:43;;;;;;;12.83;7.77;;;4.40;99.90;;;;;;4988823;28;20210;-44
2022/03/10 00:30:10;;;;;;;14.30;7.03;;;4.50;99.90;;;;;;5010794;28;20205;-46
2022/03/10 00:32:45;;;;;;;10.03;7.20;;;4.40;99.90;;;;;;5007957;28;21428;-45
2022/03/10 00:35:17;;;;;;;15.03;7.47;;;4.40;99.90;;;;;;4973011;28;20225;-45
2022/03/10 00:37:45;;;;;;;11.00;6.77;;;4.40;99.90;;;;;;5009319;28;20206;-45
2022/03/10 00:40:12;;;;;;;10.20;7.07;;;4.40;99.90;;;;;;4989372;28;20227;-45
2022/03/10 00:42:40;;;;;;;10.73;8.17;;;4.40;99.90;;;;;;5009692;28;20305;-45
2022/03/10 00:45:09;;;;;;;12.63;7.93;;;4.40;99.90;;;;;;5011583;28;20540;-47
2022/03/10 00:47:36;;;;;;;11.70;7.00;;;4.10;99.90;;;;;;5011002;28;20216;-46
2022/03/10 00:50:05;;;;;;;9.07;7.00;;;4.10;99.90;;;;;;4994346;28;20210;-45
2022/03/10 00:52:32;;;;;;;13.00;6.80;;;3.80;99.90;;;;;;4992512;28;20232;-46
2022/03/10 00:54:58;;;;;;;11.50;7.83;;;3.90;99.90;;;;;;4988870;28;20768;-45
2022/03/10 00:57:25;;;;;;;10.33;7.63;;;4.00;99.90;;;;;;5011438;28;20210;-45
2022/03/10 00:59:52;;;;;;;10.60;7.80;;;4.10;99.90;;;;;;4996650;28;20281;-47
2022/03/10 01:02:20;;;;;;;12.60;7.60;;;4.10;99.90;;;;;;4999917;28;20226;-47
2022/03/10 01:04:47;;;;;;;12.53;7.43;;;4.10;99.90;;;;;;5003993;28;20211;-45
2022/03/10 01:07:14;;;;;;;11.23;7.47;;;4.10;99.90;;;;;;4980901;28;20306;-46
2022/03/10 01:09:41;;;;;;;10.77;7.10;;;4.10;99.90;;;;;;5016584;28;20245;-47
2022/03/10 01:12:08;;;;;;;15.27;7.00;;;4.20;99.90;;;;;;4999344;28;20591;-46
2022/03/10 01:14:35;;;;;;;12.83;7.90;;;4.10;99.90;;;;;;5010863;28;20221;-45
2022/03/10 01:17:02;;;;;;;13.03;7.97;;;4.10;99.90;;;;;;5001799;28;20330;-48
2022/03/10 01:19:30;;;;;;;11.90;7.43;;;4.10;99.90;;;;;;5008738;28;20220;-47
2022/03/10 01:21:57;;;;;;;11.77;7.23;;;4.10;99.90;;;;;;5005896;28;20254;-50
2022/03/10 01:24:24;;;;;;;12.43;7.43;;;4.10;99.90;;;;;;4984431;28;20206;-44
2022/03/10 01:26:51;;;;;;;10.93;7.10;;;4.10;99.90;;;;;;5010647;28;20206;-49
2022/03/10 01:29:18;;;;;;;10.40;7.57;;;4.10;99.90;;;;;;4992937;28;20202;-48
2022/03/10 01:31:45;;;;;;;9.27;7.07;;;4.10;99.90;;;;;;5013081;28;20233;-46
2022/03/10 01:34:12;;;;;;;9.93;7.03;;;4.10;99.90;;;;;;4997282;28;20206;-50
2022/03/10 01:36:41;;;;;;;13.17;7.87;;;4.00;99.90;;;;;;4996565;28;20218;-45
2022/03/10 01:39:08;;;;;;;12.87;7.70;;;4.00;99.90;;;;;;4997941;28;20278;-45
2022/03/10 01:41:36;;;;;;;14.73;7.93;;;4.10;99.90;;;;;;4997629;28;20301;-45
2022/03/10 01:44:04;;;;;;;12.80;7.87;;;4.00;99.90;;;;;;4994712;28;20218;-45
2022/03/10 01:46:32;;;;;;;9.97;7.30;;;4.10;99.90;;;;;;5012108;28;20631;-44
2022/03/10 01:49:00;;;;;;;11.13;7.57;;;4.10;99.90;;;;;;5007059;28;20247;-45
2022/03/10 01:51:27;;;;;;;9.97;7.10;;;4.10;99.90;;;;;;4993008;28;20216;-45
2022/03/10 01:53:56;;;;;;;11.03;7.43;;;4.10;99.90;;;;;;4992151;28;20305;-47
2022/03/10 01:56:24;;;;;;;12.53;7.70;;;4.00;99.90;;;;;;4992304;28;20223;-46
2022/03/10 01:58:53;;;;;;;10.07;6.90;;;4.00;99.90;;;;;;4989816;28;20249;-46
2022/03/10 02:01:21;;;;;;;15.97;6.87;;;4.00;99.90;;;;;;5006133;28;20500;-46
2022/03/10 02:03:48;;;;;;;8.87;6.73;;;4.00;99.90;;;;;;4999390;28;20216;-46
2022/03/10 02:06:15;;;;;;;14.07;6.83;;;4.00;99.90;;;;;;5006298;28;20514;-44
2022/03/10 02:11:29;;;;;;;10.23;6.83;;;4.00;99.90;;;;;;4997406;28;20560;-45
2022/03/10 02:13:56;;;;;;;12.03;7.80;;;4.00;99.90;;;;;;4998042;28;20211;-47
2022/03/10 02:19:07;;;;;;;10.80;7.30;;;4.00;99.90;;;;;;4987283;28;20459;-46
2022/03/10 02:21:34;;;;;;;13.83;7.57;;;4.00;99.90;;;;;;5012443;28;20560;-45
2022/03/10 02:24:02;;;;;;;10.43;7.70;;;4.00;99.90;;;;;;4999317;28;20306;-46
2022/03/10 02:26:29;;;;;;;12.90;7.23;;;4.00;99.90;;;;;;4980525;28;20203;-45
2022/03/10 02:28:56;;;;;;;10.67;7.50;;;4.00;99.90;;;;;;5006886;28;20210;-45
2022/03/10 02:31:24;;;;;;;13.27;7.90;;;4.00;99.90;;;;;;4981707;28;20210;-45
2022/03/10 02:33:52;;;;;;;12.60;7.57;;;3.90;99.90;;;;;;4986834;28;20236;-44
2022/03/10 02:36:19;;;;;;;10.23;7.27;;;3.90;99.90;;;;;;5012405;28;20230;-45
2022/03/10 02:38:46;;;;;;;12.60;7.80;;;3.90;99.90;;;;;;5003543;28;20290;-45
2022/03/10 02:41:14;;;;;;;12.73;7.20;;;3.90;99.90;;;;;;5002457;28;20224;-45
2022/03/10 02:43:41;;;;;;;9.77;7.37;;;3.90;99.90;;;;;;4999239;28;20740;-45
2022/03/10 02:46:07;;;;;;;13.10;8.33;;;3.90;99.90;;;;;;5001215;28;20273;-45
2022/03/10 02:48:34;;;;;;;9.87;7.47;;;3.80;99.90;;;;;;4995863;28;21456;-45
2022/03/10 02:51:01;;;;;;;11.90;7.53;;;3.70;99.90;;;;;;4993984;28;20286;-44
2022/03/10 02:53:28;;;;;;;11.57;7.63;;;3.70;99.90;;;;;;5001672;28;22496;-44
2022/03/10 02:55:55;;;;;;;11.90;7.60;;;3.70;99.90;;;;;;4997377;28;20245;-45
2022/03/10 02:58:23;;;;;;;11.97;7.73;;;3.60;99.90;;;;;;5003943;28;20217;-45
2022/03/10 03:00:50;;;;;;;11.37;7.70;;;3.60;99.90;;;;;;4990787;28;20317;-44
2022/03/10 03:03:17;;;;;;;11.67;7.53;;;3.50;99.90;;;;;;5002054;28;20226;-45
2022/03/10 03:05:44;;;;;;;12.50;8.40;;;3.50;99.90;;;;;;4993163;28;20285;-44
2022/03/10 03:08:11;;;;;;;12.37;7.53;;;3.50;99.90;;;;;;5000096;28;20214;-46
2022/03/10 03:10:38;;;;;;;12.00;7.80;;;3.40;99.90;;;;;;4982865;28;20246;-45
2022/03/10 03:13:06;;;;;;;9.80;7.50;;;3.40;99.90;;;;;;5013313;28;20308;-44
2022/03/10 03:15:35;;;;;;;14.67;7.80;;;3.40;99.90;;;;;;4991332;28;20755;-44
2022/03/10 03:18:01;;;;;;;14.37;7.40;;;3.40;99.90;;;;;;5003631;28;20217;-44
2022/03/10 03:20:28;;;;;;;12.77;7.73;;;3.40;99.90;;;;;;4994193;28;20686;-46
2022/03/10 03:22:56;;;;;;;11.53;7.90;;;3.40;99.90;;;;;;5014428;28;20301;-44
2022/03/10 03:25:22;;;;;;;13.43;7.47;;;3.40;99.90;;;;;;5004607;28;20209;-49
2022/03/10 03:27:49;;;;;;;13.03;8.17;;;3.40;99.90;;;;;;4986620;28;20214;-46
2022/03/10 03:30:17;;;;;;;11.07;7.40;;;3.40;99.90;;;;;;4997316;28;20284;-49
2022/03/10 03:32:46;;;;;;;13.13;8.00;;;3.40;99.90;;;;;;4999756;28;20230;-45
2022/03/10 03:35:13;;;;;;;11.87;7.23;;;3.50;99.90;;;;;;5010895;28;20210;-48
2022/03/10 03:37:39;;;;;;;11.83;8.00;;;3.50;99.90;;;;;;5001139;28;20635;-50
2022/03/10 03:40:07;;;;;;;11.43;7.93;;;3.50;99.90;;;;;;4997809;28;20281;-49
2022/03/10 03:42:34;;;;;;;9.53;7.00;;;3.50;99.90;;;;;;4985853;28;20236;-48
2022/03/10 03:45:01;;;;;;;10.23;7.50;;;3.50;99.90;;;;;;5008851;28;20442;-49
2022/03/10 03:47:29;;;;;;;13.23;7.90;;;3.50;99.90;;;;;;4995393;28;20417;-46
2022/03/10 03:49:57;;;;;;;11.53;7.63;;;3.30;99.90;;;;;;4987172;28;20363;-47
2022/03/10 03:52:24;;;;;;;10.70;7.83;;;3.10;99.90;;;;;;5004486;28;20367;-49
2022/03/10 03:54:51;;;;;;;13.00;8.17;;;3.10;99.90;;;;;;5007676;28;20277;-44
2022/03/10 03:57:18;;;;;;;11.57;7.93;;;3.00;99.90;;;;;;4984211;28;20224;-46
2022/03/10 03:59:44;;;;;;;13.07;8.40;;;2.70;99.90;;;;;;5002790;28;20656;-44
2022/03/10 04:02:11;;;;;;;13.10;7.53;;;2.80;99.90;;;;;;4989711;28;20308;-45
2022/03/10 04:04:38;;;;;;;11.07;8.33;;;2.80;99.90;;;;;;5011497;28;20201;-45
2022/03/10 04:07:07;;;;;;;11.17;7.60;;;2.90;99.90;;;;;;4991932;28;20207;-45
2022/03/10 04:09:34;;;;;;;14.60;8.50;;;3.00;99.90;;;;;;5001307;28;20224;-45
2022/03/10 04:12:02;;;;;;;10.20;7.60;;;3.00;99.90;;;;;;5005332;28;20226;-44
2022/03/10 04:14:29;;;;;;;10.33;7.33;;;3.00;99.90;;;;;;4997988;28;20221;-45
2022/03/10 04:16:56;;;;;;;11.80;7.63;;;3.10;99.90;;;;;;5006759;28;20272;-45
2022/03/10 04:19:23;;;;;;;11.60;7.13;;;3.10;99.90;;;;;;5011361;28;20244;-48
2022/03/10 04:21:50;;;;;;;14.77;7.83;;;3.10;99.90;;;;;;5014275;28;20241;-45
2022/03/10 04:24:19;;;;;;;11.77;8.37;;;3.10;99.90;;;;;;4997298;28;21009;-48
2022/03/10 04:26:46;;;;;;;13.87;8.33;;;3.10;99.90;;;;;;5011292;28;20216;-45
2022/03/10 04:29:14;;;;;;;12.13;8.37;;;2.90;99.90;;;;;;4988227;28;20213;-44
2022/03/10 04:31:40;;;;;;;16.07;8.00;;;2.90;99.90;;;;;;4999119;28;20219;-46
2022/03/10 04:34:07;;;;;;;11.50;7.57;;;3.00;99.90;;;;;;4991074;28;20421;-45
2022/03/10 04:36:34;;;;;;;12.20;8.03;;;3.00;99.90;;;;;;5008887;28;20221;-44
2022/03/10 04:39:01;;;;;;;12.80;7.87;;;3.00;99.90;;;;;;5008065;28;20279;-45
2022/03/10 04:41:30;;;;;;;11.17;7.17;;;3.00;99.90;;;;;;5012295;28;20215;-44
2022/03/10 04:43:58;;;;;;;12.23;7.70;;;3.00;99.90;;;;;;4992180;28;20270;-45
2022/03/10 04:46:24;;;;;;;18.17;8.40;;;3.00;99.90;;;;;;4992789;28;20210;-47
2022/03/10 04:48:51;;;;;;;11.67;7.10;;;3.00;99.90;;;;;;4999812;28;20333;-46
2022/03/10 04:51:18;;;;;;;13.40;8.40;;;3.00;99.90;;;;;;4996010;28;20275;-44
2022/03/10 04:53:45;;;;;;;13.90;7.90;;;3.00;99.90;;;;;;5003203;28;20262;-44
2022/03/10 04:56:12;;;;;;;15.07;8.07;;;2.90;99.90;;;;;;5007671;28;20201;-44
2022/03/10 04:58:40;;;;;;;15.77;7.70;;;2.90;99.90;;;;;;5001300;28;20311;-46
2022/03/10 05:01:07;;;;;;;11.53;8.13;;;2.90;99.90;;;;;;4993933;28;20216;-49
2022/03/10 05:03:34;;;;;;;10.50;7.60;;;2.90;99.90;;;;;;5003637;28;20231;-45
2022/03/10 05:06:01;;;;;;;13.70;7.20;;;2.80;99.90;;;;;;5005249;28;20217;-46
2022/03/10 05:08:28;;;;;;;12.80;7.87;;;2.80;99.90;;;;;;5018993;28;20216;-45
2022/03/10 05:10:55;;;;;;;12.47;7.60;;;2.80;99.90;;;;;;4993197;28;20221;-45
2022/03/10 05:13:22;;;;;;;10.73;7.63;;;2.80;99.90;;;;;;5011710;28;20338;-46
2022/03/10 05:15:51;;;;;;;11.27;7.53;;;2.40;99.90;;;;;;4993572;28;20469;-45
2022/03/10 05:18:17;;;;;;;14.83;8.37;;;2.80;99.90;;;;;;4992769;28;20304;-48
2022/03/10 05:20:45;;;;;;;10.83;8.10;;;2.80;99.90;;;;;;5003096;28;20247;-46
2022/03/10 05:23:12;;;;;;;12.63;7.57;;;2.80;99.90;;;;;;5009972;28;20250;-46
2022/03/10 05:25:40;;;;;;;13.70;8.67;;;2.80;99.90;;;;;;5000944;28;20431;-46
2022/03/10 05:28:13;;;;;;;14.17;8.40;;;2.80;99.90;;;;;;5010062;28;23132;-47
2022/03/10 05:30:39;;;;;;;14.50;8.43;;;2.80;99.90;;;;;;5003931;28;20672;-45
2022/03/10 05:33:08;;;;;;;14.47;8.83;;;2.80;99.90;;;;;;4984046;28;20243;-45
2022/03/10 05:35:35;;;;;;;13.07;8.10;;;2.80;99.90;;;;;;5008598;28;20204;-46
2022/03/10 05:38:02;;;;;;;12.33;7.97;;;2.80;99.90;;;;;;5004064;28;20610;-43
2022/03/10 05:40:29;;;;;;;12.93;7.83;;;2.80;99.90;;;;;;4992590;28;20205;-45
2022/03/10 05:42:57;;;;;;;12.57;8.10;;;2.80;99.90;;;;;;5010729;28;20227;-48
2022/03/10 05:45:25;;;;;;;13.17;8.47;;;2.80;99.90;;;;;;5001109;28;20284;-48
2022/03/10 05:47:54;;;;;;;10.60;7.67;;;2.70;99.90;;;;;;4979992;28;20234;-46
2022/03/10 05:50:23;;;;;;;13.07;8.20;;;2.70;99.90;;;;;;4975503;28;20217;-46
2022/03/10 05:52:50;;;;;;;12.53;8.17;;;2.80;99.90;;;;;;4998527;28;20305;-49
2022/03/10 05:55:17;;;;;;;11.07;7.83;;;2.80;99.90;;;;;;4989117;28;20376;-45
2022/03/10 05:57:44;;;;;;;17.77;8.83;;;2.80;99.90;;;;;;5005596;28;20233;-45
2022/03/10 06:00:14;;;;;;;10.13;7.90;;;2.70;99.90;;;;;;5005425;28;20748;-46
2022/03/10 06:02:41;;;;;;;16.97;7.90;;;2.70;99.90;;;;;;4999816;28;20232;-45
2022/03/10 06:05:09;;;;;;;11.63;7.70;;;2.70;99.90;;;;;;4961416;28;20293;-45
2022/03/10 06:07:37;;;;;;;12.43;7.97;;;2.70;99.90;;;;;;4982821;28;20215;-46
2022/03/10 06:10:05;;;;;;;16.60;8.00;;;2.70;99.90;;;;;;4982577;28;20287;-46
2022/03/10 06:12:32;;;;;;;13.23;7.37;;;2.70;99.90;;;;;;5004221;28;20296;-45
2022/03/10 06:15:01;;;;;;;11.63;7.50;;;2.70;99.90;;;;;;5009212;28;20559;-46
2022/03/10 06:17:29;;;;;;;12.27;7.30;;;2.70;99.90;;;;;;4995570;28;20615;-44
2022/03/10 06:19:56;;;;;;;9.77;6.97;;;2.80;99.90;;;;;;4983775;28;20236;-46
2022/03/10 06:22:25;;;;;;;12.50;7.13;;;2.80;99.90;;;;;;4988335;28;20394;-45
2022/03/10 06:24:53;;;;;;;14.43;7.70;;;2.90;99.90;;;;;;4988002;28;20285;-47
2022/03/10 06:27:22;;;;;;;13.97;7.83;;;2.90;99.90;;;;;;4999486;28;20205;-46
2022/03/10 06:29:50;;;;;;;13.30;8.20;;;2.80;99.90;;;;;;5008454;28;20284;-46
2022/03/10 06:32:17;;;;;;;11.47;7.30;;;2.90;99.90;;;;;;5003900;28;20264;-46
2022/03/10 06:34:45;;;;;;;12.07;7.77;;;2.90;99.90;;;;;;5003142;28;20591;-45
2022/03/10 06:37:12;;;;;;;11.53;7.50;;;2.90;99.90;;;;;;4987325;28;20319;-46
2022/03/10 06:39:39;;;;;;;13.53;7.23;;;2.90;99.90;;;;;;4992121;28;20221;-44
2022/03/10 06:42:09;;;;;;;10.10;6.80;;;3.00;99.90;;;;;;5014493;28;20605;-45
2022/03/10 06:44:36;;;;;;;10.73;7.47;;;3.00;99.90;;;;;;5012737;28;20210;-45
2022/03/10 06:47:04;;;;;;;12.43;7.27;;;3.10;99.90;;;;;;4992501;28;20306;-49
2022/03/10 06:49:31;;;;;;;11.07;6.57;;;3.10;99.90;;;;;;5000903;28;20484;-46
2022/03/10 06:51:58;;;;;;;10.37;7.30;;;3.10;99.90;;;;;;4985250;28;20230;-49
2022/03/10 06:54:25;;;;;;;14.43;7.70;;;3.20;99.90;;;;;;5008809;28;20456;-45
2022/03/10 06:56:52;;;;;;;12.77;7.53;;;3.70;99.90;;;;;;4997657;28;20474;-44
2022/03/10 06:59:20;;;;;;;12.77;7.20;;;3.70;99.90;;;;;;5012112;28;20428;-45
2022/03/10 07:01:47;;;;;;;10.73;7.30;;;3.70;99.90;;;;;;5008302;28;20221;-46
2022/03/10 07:04:14;;;;;;;13.60;7.50;;;3.70;99.90;;;;;;4997425;28;20209;-45
2022/03/10 07:06:41;;;;;;;11.40;7.17;;;3.60;99.90;;;;;;4993488;28;20221;-45
2022/03/10 07:09:07;;;;;;;10.17;6.83;;;3.60;99.90;;;;;;5000555;28;20663;-45
2022/03/10 07:11:34;;;;;;;11.73;7.33;;;3.70;99.90;;;;;;5006325;28;20282;-45
2022/03/10 07:14:01;;;;;;;15.53;7.57;;;3.70;99.90;;;;;;5015771;28;20319;-46
2022/03/10 07:16:30;;;;;;;16.23;7.53;;;3.70;99.90;;;;;;5012813;28;20289;-46
2022/03/10 07:18:56;;;;;;;9.53;6.53;;;3.80;99.90;;;;;;5021373;28;20218;-45
2022/03/10 07:21:24;;;;;;;11.97;8.03;;;3.80;99.90;;;;;;4984331;28;20284;-46
2022/03/10 07:23:51;;;;;;;14.67;7.20;;;3.80;99.90;;;;;;5002337;28;20332;-45
2022/03/10 07:26:20;;;;;;;11.70;7.17;;;3.90;99.90;;;;;;5008975;28;20209;-44
2022/03/10 07:28:48;;;;;;;11.13;7.23;;;3.90;99.90;;;;;;4994990;28;20207;-44
2022/03/10 07:31:15;;;;;;;12.20;6.73;;;4.00;99.90;;;;;;5002492;28;20216;-44
2022/03/10 07:33:43;;;;;;;12.13;7.07;;;4.00;99.90;;;;;;5009320;28;20389;-45
2022/03/10 07:36:11;;;;;;;9.77;7.10;;;4.00;99.90;;;;;;4990771;28;20221;-44
2022/03/10 07:38:37;;;;;;;14.33;7.37;;;4.10;99.90;;;;;;4986559;28;20249;-47
2022/03/10 07:41:04;;;;;;;11.43;7.03;;;4.20;99.90;;;;;;5000831;28;20288;-45
2022/03/10 07:43:31;;;;;;;14.60;7.60;;;4.20;99.90;;;;;;5006023;28;20284;-46
2022/03/10 07:45:58;;;;;;;9.33;6.77;;;4.30;99.90;;;;;;5010091;28;20482;-45
2022/03/10 07:48:25;;;;;;;9.83;7.07;;;4.30;99.90;;;;;;5026470;28;20533;-45
2022/03/10 07:50:53;;;;;;;11.00;7.77;;;4.40;99.90;;;;;;4994913;28;20750;-45
2022/03/10 07:53:20;;;;;;;8.87;6.57;;;4.40;99.90;;;;;;5003741;28;20260;-45
2022/03/10 07:55:50;;;;;;;10.33;7.07;;;4.50;99.90;;;;;;5006713;28;20281;-45
2022/03/10 07:58:17;;;;;;;14.13;7.17;;;4.60;99.90;;;;;;5007144;28;20238;-45
2022/03/10 08:00:43;;;;;;;8.87;6.37;;;4.60;99.90;;;;;;5019984;28;20225;-46
2022/03/10 08:03:12;;;;;;;13.43;6.57;;;4.70;99.90;;;;;;5006123;28;20491;-45
2022/03/10 08:05:38;;;;;;;10.40;7.10;;;4.80;99.90;;;;;;5021288;28;20217;-47
2022/03/10 08:08:07;;;;;;;10.83;6.83;;;4.80;99.90;;;;;;4989995;28;20401;-45
2022/03/10 08:10:34;;;;;;;9.33;6.10;;;4.90;99.90;;;;;;5004860;28;20286;-46
2022/03/10 08:13:00;;;;;;;10.40;6.50;;;4.90;99.90;;;;;;5013286;28;20246;-46
2022/03/10 08:15:28;;;;;;;11.97;7.17;;;5.00;99.90;;;;;;5016598;28;20240;-45
2022/03/10 08:17:55;;;;;;;9.87;6.90;;;5.00;99.90;;;;;;5006693;28;20337;-45
2022/03/10 08:20:23;;;;;;;9.47;6.87;;;5.10;99.90;;;;;;5006833;28;20341;-45
2022/03/10 08:22:50;;;;;;;10.27;7.00;;;5.20;99.90;;;;;;5003593;28;20319;-43
2022/03/10 08:25:18;;;;;;;9.17;6.23;;;5.30;99.90;;;;;;5007268;28;20510;-44
2022/03/10 08:27:47;;;;;;;11.03;6.63;;;5.30;99.90;;;;;;5002853;28;20217;-48
2022/03/10 08:30:14;;;;;;;8.67;6.93;;;5.40;99.90;;;;;;5024915;28;20437;-43
2022/03/10 08:32:41;;;;;;;11.33;6.57;;;5.50;99.90;;;;;;5019796;28;20241;-48
2022/03/10 08:35:09;;;;;;;13.07;6.50;;;5.50;99.90;;;;;;5011213;28;20212;-45
2022/03/10 08:37:36;;;;;;;7.83;6.23;;;5.70;99.90;;;;;;4994434;28;20233;-46
2022/03/10 08:40:04;;;;;;;10.77;6.80;;;5.70;99.90;;;;;;4991547;28;20218;-46
2022/03/10 08:42:32;;;;;;;9.83;7.00;;;5.80;99.90;;;;;;5013354;28;20231;-46
2022/03/10 08:44:59;;;;;;;11.13;6.30;;;5.80;99.90;;;;;;5004737;28;20204;-44
2022/03/10 08:47:25;;;;;;;10.10;6.50;;;5.90;99.90;;;;;;5021404;28;20479;-45
2022/03/10 08:49:52;;;;;;;10.43;6.20;;;6.00;99.90;;;;;;5017975;28;20360;-45
2022/03/10 08:52:19;;;;;;;10.23;6.83;;;6.00;99.90;;;;;;5019079;28;20595;-45
2022/03/10 08:54:46;;;;;;;11.50;6.90;;;6.10;99.90;;;;;;4988800;28;20445;-47
2022/03/10 08:57:13;;;;;;;12.77;7.37;;;6.20;99.90;;;;;;5011137;28;20248;-45
2022/03/10 08:59:41;;;;;;;11.23;6.87;;;6.20;99.90;;;;;;5011406;28;20235;-47
2022/03/10 09:02:08;;;;;;;9.90;6.73;;;6.30;99.90;;;;;;5000783;28;20273;-46
2022/03/10 09:04:35;;;;;;;12.17;6.50;;;6.40;99.90;;;;;;5018978;28;20214;-47
2022/03/10 09:07:02;;;;;;;9.20;6.60;;;6.50;99.90;;;;;;5017392;28;20288;-45
2022/03/10 09:09:29;;;;;;;11.67;6.37;;;6.50;99.90;;;;;;4990303;28;20201;-45
2022/03/10 09:11:56;;;;;;;11.00;6.50;;;6.60;99.90;;;;;;5001156;28;20285;-46
2022/03/10 09:14:23;;;;;;;9.23;6.33;;;6.70;99.90;;;;;;5000015;28;20276;-45
2022/03/10 09:16:52;;;;;;;8.70;6.40;;;6.70;99.90;;;;;;5022778;28;20301;-45
2022/03/10 09:19:19;;;;;;;7.83;6.17;;;6.80;99.90;;;;;;5009276;28;20236;-47
2022/03/10 09:21:46;;;;;;;11.13;6.50;;;6.80;99.90;;;;;;5020682;28;20250;-45
2022/03/10 09:24:13;;;;;;;9.37;6.20;;;7.00;99.90;;;;;;5018248;28;20215;-46
2022/03/10 09:26:40;;;;;;;9.37;6.60;;;7.00;99.90;;;;;;4991732;28;20220;-45
2022/03/10 09:29:07;;;;;;;8.23;5.80;;;7.10;99.90;;;;;;5003134;28;20294;-49
2022/03/10 09:31:34;;;;;;;9.33;6.63;;;7.20;99.90;;;;;;5010469;28;20673;-48
2022/03/10 09:34:04;;;;;;;9.70;5.97;;;7.20;99.90;;;;;;5015193;28;20229;-49
2022/03/10 09:36:31;;;;;;;12.00;6.37;;;7.30;99.90;;;;;;5006324;28;20376;-45
2022/03/10 09:38:58;;;;;;;8.43;5.90;;;7.40;99.90;;;;;;5016265;28;20217;-45
2022/03/10 09:41:28;;;;;;;12.93;6.20;;;7.50;99.90;;;;;;4992118;28;20214;-45
2022/03/10 09:43:56;;;;;;;10.40;6.07;;;7.50;99.90;;;;;;5001489;28;20214;-45
2022/03/10 09:46:23;;;;;;;9.33;6.30;;;7.60;99.90;;;;;;5008268;28;20556;-45
2022/03/10 09:48:50;;;;;;;13.93;5.70;;;7.70;99.90;;;;;;5012221;28;20293;-46
2022/03/10 09:51:21;;;;;;;11.30;6.47;;;7.70;99.90;;;;;;5013698;28;20206;-46
2022/03/10 09:53:48;;;;;;;8.87;5.73;;;7.90;99.90;;;;;;5006336;28;20209;-45
2022/03/10 09:56:16;;;;;;;9.23;6.03;;;8.00;99.90;;;;;;5003605;28;20293;-45
2022/03/10 09:58:43;;;;;;;9.17;5.33;;;8.10;99.90;;;;;;4997086;28;20228;-46
2022/03/10 10:01:09;;;;;;;11.47;6.03;;;8.20;99.90;;;;;;4998486;28;20217;-47
2022/03/10 10:03:36;;;;;;;9.23;5.53;;;8.20;99.90;;;;;;5006663;28;21275;-47
2022/03/10 10:06:04;;;;;;;7.90;5.63;;;8.30;99.90;;;;;;5022912;28;20593;-45
2022/03/10 10:08:34;;;;;;;7.63;5.30;;;8.30;99.90;;;;;;5001714;28;20206;-48
2022/03/10 10:11:02;;;;;;;8.23;5.93;;;8.50;99.90;;;;;;5008060;28;20714;-46
2022/03/10 10:13:30;;;;;;;9.87;6.40;;;8.60;99.90;;;;;;4998080;28;20229;-45
2022/03/10 10:15:59;;;;;;;10.03;5.67;;;8.60;99.90;;;;;;5003605;28;20204;-45
2022/03/10 10:18:28;;;;;;;8.77;6.60;;;8.70;99.90;;;;;;5004806;28;20227;-45
2022/03/10 10:20:55;;;;;;;7.43;5.47;;;8.80;99.90;;;;;;5014035;28;20194;-45
2022/03/10 10:23:25;;;;;;;7.70;5.73;;;8.80;99.90;;;;;;5011090;28;20736;-46
2022/03/10 10:25:56;;;;;;;7.87;6.07;;;8.80;99.90;;;;;;4995344;28;21712;-45
2022/03/10 10:28:28;;;;;;;8.43;5.93;;;8.80;99.90;;;;;;4988312;28;20424;-45
2022/03/10 10:31:00;;;;;;;8.27;6.10;;;8.90;99.90;;;;;;5006929;28;20551;-46
2022/03/10 10:33:28;;;;;;;9.40;5.73;;;8.90;99.90;;;;;;5003400;28;20315;-45
2022/03/10 10:36:16;;;;;;;8.70;5.77;;;8.90;99.90;;;;;;5022834;28;20273;-45
2022/03/10 10:38:44;;;;;;;12.70;5.60;;;9.00;99.90;;;;;;5005240;28;20305;-46
2022/03/10 10:41:27;;;;;;;10.67;6.00;;;9.10;99.90;;;;;;5015850;28;20233;-45
2022/03/10 10:43:56;;;;;;;10.03;6.17;;;9.10;99.90;;;;;;5015058;28;20281;-46
2022/03/10 10:46:29;;;;;;;12.37;5.90;;;9.10;99.90;;;;;;4999466;28;20209;-47
2022/03/10 10:48:57;;;;;;;9.77;6.13;;;9.20;99.90;;;;;;5012062;28;20229;-45
2022/03/10 10:51:36;;;;;;;7.80;5.90;;;9.30;99.90;;;;;;5008267;28;20280;-47
2022/03/10 10:54:06;;;;;;;8.23;6.33;;;9.30;99.90;;;;;;5024695;28;20234;-45
2022/03/10 10:56:34;;;;;;;8.07;5.53;;;9.40;99.90;;;;;;5002405;28;20201;-45
2022/03/10 10:59:02;;;;;;;9.73;5.97;;;9.50;99.90;;;;;;4991713;28;20226;-46
2022/03/10 11:01:31;;;;;;;8.17;5.33;;;9.50;99.90;;;;;;5011005;28;20256;-46
2022/03/10 11:03:58;;;;;;;9.63;5.57;;;9.60;99.90;;;;;;5000276;28;20202;-46
2022/03/10 11:06:26;;;;;;;7.93;5.33;;;9.60;99.90;;;;;;5024843;28;20230;-49
2022/03/10 11:08:53;;;;;;;7.53;5.70;;;9.70;99.90;;;;;;5013326;28;20217;-46
2022/03/10 11:11:21;;;;;;;8.17;5.53;;;9.70;99.90;;;;;;5008700;28;20528;-46
2022/03/10 11:13:49;;;;;;;9.43;5.80;;;9.80;99.90;;;;;;5009966;28;20289;-46
2022/03/10 11:16:17;;;;;;;10.07;5.73;;;9.90;99.90;;;;;;4988244;28;20264;-45
2022/03/10 11:18:49;;;;;;;11.30;5.80;;;9.90;99.90;;;;;;5017157;28;20222;-45
2022/03/10 11:21:31;;;;;;;6.63;5.50;;;10.00;99.90;;;;;;5004252;28;20719;-46
2022/03/10 11:24:10;;;;;;;12.43;6.40;;;10.00;99.90;;;;;;4999459;28;20209;-45
2022/03/10 11:26:45;;;;;;;8.77;5.10;;;10.10;99.90;;;;;;5010186;28;20273;-46
2022/03/10 11:29:20;;;;;;;9.25;6.00;;;10.20;99.90;;;;;;5016936;28;20233;-49
2022/03/10 11:31:47;;;;;;;8.93;5.95;;;10.20;99.90;;;;;;4989756;28;20229;-45
2022/03/10 11:34:45;;;;;;;10.93;6.07;;;10.30;99.90;;;;;;5021882;28;20308;-45
2022/03/10 11:37:12;;;;;;;8.63;5.47;;;10.40;99.90;;;;;;5002349;28;20209;-49
2022/03/10 11:39:54;;;;;;;9.85;5.97;;;10.40;99.90;;;;;;5013121;28;20293;-43
2022/03/10 11:42:29;;;;;;;8.63;5.93;;;10.50;99.90;;;;;;4997964;28;20412;-46
2022/03/10 11:45:12;;;;;;;9.45;5.97;;;10.50;99.90;;;;;;5004439;28;20213;-46
2022/03/10 11:47:40;;;;;;;10.75;5.95;;;10.60;99.90;;;;;;5002203;28;20217;-46
2022/03/10 11:50:30;;;;;;;8.13;5.53;;;10.60;99.90;;;;;;5009824;28;20604;-45
2022/03/10 11:53:02;;;;;;;8.13;5.57;;;10.70;99.90;;;;;;5010983;28;20236;-46
2022/03/10 11:55:44;;;;;;;14.02;6.20;;;10.70;99.90;;;;;;5007958;28;20277;-45
2022/03/10 11:58:13;;;;;;;10.70;5.88;;;10.70;99.90;;;;;;5011388;28;20210;-45
2022/03/10 12:00:52;;;;;;;8.38;6.22;;;10.70;99.90;;;;;;4999906;28;20206;-47
2022/03/10 12:03:21;;;;;;;8.43;5.82;;;10.80;99.90;;;;;;5011057;28;20451;-46
2022/03/10 12:05:52;;;;;;;8.93;5.65;;;10.90;99.90;;;;;;5006994;28;20203;-45
2022/03/10 12:08:20;;;;;;;9.52;6.75;;;10.90;99.90;;;;;;5016598;28;20247;-46
2022/03/10 12:10:48;;;;;;;7.35;5.78;;;10.90;99.90;;;;;;4999580;28;20207;-45
2022/03/10 12:13:23;;;;;;;9.57;6.03;;;10.90;99.90;;;;;;5010305;28;20237;-46
2022/03/10 12:15:52;;;;;;;10.10;5.70;;;11.00;99.90;;;;;;4988252;28;20210;-46
2022/03/10 12:18:30;;;;;;;8.80;6.00;;;11.00;99.90;;;;;;5007916;28;20247;-46
2022/03/10 12:20:58;;;;;;;9.18;6.13;;;11.10;99.90;;;;;;5007189;28;20225;-46
2022/03/10 12:23:31;;;;;;;8.57;6.18;;;11.10;99.90;;;;;;4998270;28;20238;-46
2022/03/10 12:26:00;;;;;;;7.45;5.88;;;11.10;99.90;;;;;;5008231;28;20205;-45
2022/03/10 12:28:35;;;;;;;7.80;5.97;;;11.10;99.90;;;;;;5011340;28;20216;-45
2022/03/10 12:31:10;;;;;;;7.15;5.57;;;11.20;99.90;;;;;;4991892;28;20847;-46
2022/03/10 12:33:48;;;;;;;10.80;6.13;;;11.30;99.90;;;;;;5018388;28;20228;-45
2022/03/10 12:36:25;;;;;;;7.40;5.68;;;11.30;99.90;;;;;;5009037;28;20210;-46
2022/03/10 12:38:52;;;;;;;8.23;6.18;;;11.30;99.90;;;;;;5004482;28;20900;-46
2022/03/10 12:41:19;;;;;;;7.50;5.32;;;11.40;99.90;;;;;;5014864;28;20619;-46
2022/03/10 12:43:54;;;;;;;8.82;6.20;;;11.40;99.90;;;;;;5003051;28;20305;-47
2022/03/10 12:46:23;;;;;;;7.93;5.55;;;11.40;99.90;;;;;;5013189;28;20285;-45
2022/03/10 12:49:01;;;;;;;7.85;5.63;;;11.40;99.90;;;;;;4989956;28;20713;-45
2022/03/10 12:51:31;;;;;;;12.85;5.72;;;11.50;99.90;;;;;;5014571;28;20276;-44
2022/03/10 12:53:59;;;;;;;7.68;5.45;;;11.50;99.90;;;;;;5021614;28;20238;-45
2022/03/10 12:56:27;;;;;;;8.32;6.00;;;11.60;99.90;;;;;;4989232;28;20305;-47
2022/03/10 12:58:55;;;;;;;7.80;5.75;;;11.60;99.90;;;;;;5021490;28;20228;-45